Time;durP1;ratioP1;P1;durP2;ratioP2;P2;SDS_P1;SDS_P2;PMS_P1;PMS_P2;Temp;Humidity;BMP_temperature;BMP_pressure;BME280_temperature;BME280_humidity;BME280_pressure;Samples;Min_cycle;Max_cycle;Signal;HPM_P1;HPM_P2
2021/09/11 00:01:00;;;;;;;10.32;4.90;;;;;;;17.33;80.56;101555.28;4842972;29;20096;-63
2021/09/11 00:03:26;;;;;;;11.35;5.05;;;;;;;17.39;80.69;101564.72;4842901;29;20094;-68
2021/09/11 00:05:51;;;;;;;10.55;5.22;;;;;;;17.43;80.91;101555.56;4842839;29;20040;-68
2021/09/11 00:08:16;;;;;;;11.48;5.55;;;;;;;17.51;80.64;101547.91;4841051;29;20123;-63
2021/09/11 00:10:42;;;;;;;10.57;4.97;;;;;;;17.55;80.59;101537.88;4841747;29;20395;-66
2021/09/11 00:13:07;;;;;;;12.43;5.65;;;;;;;17.61;80.24;101550.00;4842532;29;20048;-64
2021/09/11 00:15:33;;;;;;;13.60;5.28;;;;;;;17.58;80.56;101539.50;4842634;29;20026;-63
2021/09/11 00:18:03;;;;;;;11.70;5.35;;;;;;;17.55;80.74;101537.03;4842131;29;20030;-67
2021/09/11 00:20:29;;;;;;;10.73;5.47;;;;;;;17.58;80.40;101543.03;4824821;29;20057;-67
2021/09/11 00:22:55;;;;;;;10.07;5.50;;;;;;;17.63;80.39;101543.59;4842928;29;20065;-65
2021/09/11 00:25:21;;;;;;;10.75;4.90;;;;;;;17.66;80.33;101550.56;4842691;29;20026;-64
2021/09/11 00:27:46;;;;;;;9.90;4.97;;;;;;;17.68;80.48;101543.31;4842445;29;20505;-66
2021/09/11 00:30:12;;;;;;;11.48;5.43;;;;;;;17.67;80.26;101547.81;4841972;29;20038;-67
2021/09/11 00:32:42;;;;;;;13.10;5.72;;;;;;;17.69;80.42;101555.75;4842029;29;20026;-68
2021/09/11 00:35:08;;;;;;;11.82;5.47;;;;;;;17.69;80.81;101559.28;4842229;29;20036;-67
2021/09/11 00:37:33;;;;;;;12.68;5.85;;;;;;;17.69;80.71;101556.59;4842222;29;20534;-63
2021/09/11 00:39:59;;;;;;;13.57;6.65;;;;;;;17.74;80.49;101552.78;4841496;29;20037;-67
2021/09/11 00:42:24;;;;;;;13.50;6.57;;;;;;;17.75;80.36;101544.66;4842092;29;20029;-63
2021/09/11 00:44:49;;;;;;;12.45;6.47;;;;;;;17.78;80.49;101551.63;4842009;29;20030;-68
2021/09/11 00:47:15;;;;;;;15.07;6.85;;;;;;;17.78;80.31;101546.28;4842383;29;20159;-68
2021/09/11 00:49:40;;;;;;;14.65;8.00;;;;;;;17.79;80.13;101540.81;4841936;29;20026;-63
2021/09/11 00:52:05;;;;;;;17.50;7.93;;;;;;;17.78;79.97;101541.75;4839542;29;20091;-64
2021/09/11 00:54:31;;;;;;;14.00;7.57;;;;;;;17.78;79.94;101546.28;4842195;29;20030;-68
2021/09/11 00:56:57;;;;;;;12.98;6.97;;;;;;;17.78;79.99;101538.22;4841559;29;20038;-68
2021/09/11 00:59:22;;;;;;;16.08;7.20;;;;;;;17.78;79.71;101546.28;4841716;29;20041;-64
2021/09/11 01:01:47;;;;;;;14.30;7.90;;;;;;;17.81;79.90;101541.56;4841441;29;20038;-63
2021/09/11 01:04:13;;;;;;;17.08;7.15;;;;;;;17.84;79.69;101544.03;4841840;29;20136;-65
2021/09/11 01:06:38;;;;;;;11.75;6.72;;;;;;;17.82;79.71;101545.94;4842175;29;20030;-64
2021/09/11 01:09:04;;;;;;;14.48;7.50;;;;;;;17.79;79.92;101546.16;4841877;29;20034;-67
2021/09/11 01:11:29;;;;;;;11.88;7.38;;;;;;;17.77;79.91;101552.56;4832661;29;20029;-66
2021/09/11 01:13:57;;;;;;;13.82;6.82;;;;;;;17.80;79.98;101552.38;4841113;29;20049;-68
2021/09/11 01:16:23;;;;;;;13.55;7.38;;;;;;;17.80;80.14;101544.31;4841777;29;20078;-63
2021/09/11 01:18:48;;;;;;;15.48;7.25;;;;;;;17.80;79.51;101547.00;4841395;29;20030;-63
2021/09/11 01:21:13;;;;;;;14.98;6.80;;;;;;;17.80;80.06;101541.66;4841521;29;20105;-68
2021/09/11 01:23:41;;;;;;;15.77;7.25;;;;;;;17.80;80.00;101544.31;4841005;29;20034;-66
2021/09/11 01:26:07;;;;;;;13.75;6.32;;;;;;;17.76;80.15;101545.50;4840999;29;20562;-64
2021/09/11 01:28:32;;;;;;;12.43;6.95;;;;;;;17.80;80.03;101544.31;4841401;29;20113;-64
2021/09/11 01:30:58;;;;;;;14.85;7.07;;;;;;;17.80;79.98;101545.22;4841845;29;20086;-68
2021/09/11 01:33:24;;;;;;;15.35;7.40;;;;;;;17.82;79.92;101547.78;4841177;29;20491;-63
2021/09/11 01:35:52;;;;;;;11.88;7.28;;;;;;;17.79;79.66;101548.00;4841354;29;20089;-64
2021/09/11 01:38:17;;;;;;;17.55;7.72;;;;;;;17.80;80.03;101547.88;4841563;29;20106;-69
2021/09/11 01:40:43;;;;;;;17.90;7.50;;;;;;;17.80;79.90;101539.84;4841278;29;20128;-67
2021/09/11 01:43:08;;;;;;;13.88;7.93;;;;;;;17.79;79.98;101550.69;4841178;29;20113;-67
2021/09/11 01:45:34;;;;;;;14.05;8.10;;;;;;;17.80;80.11;101547.88;4840920;29;20471;-64
2021/09/11 01:47:59;;;;;;;17.80;8.25;;;;;;;17.82;80.36;101550.47;4841666;29;20395;-68
2021/09/11 01:50:24;;;;;;;13.43;8.20;;;;;;;17.79;80.54;101551.53;4841523;29;20030;-63
2021/09/11 01:52:51;;;;;;;13.57;8.50;;;;;;;17.73;80.96;101551.91;4841644;29;20030;-68
2021/09/11 01:55:17;;;;;;;16.73;9.10;;;;;;;17.70;81.03;101546.75;4841098;29;20042;-69
2021/09/11 01:57:44;;;;;;;17.85;9.63;;;;;;;17.70;81.46;101546.75;4841190;29;20045;-63
2021/09/11 02:00:14;;;;;;;21.27;9.90;;;;;;;17.73;81.64;101543.03;4825816;29;20046;-68
2021/09/11 02:02:40;;;;;;;21.85;10.13;;;;;;;17.73;81.24;101559.94;4823259;29;20058;-69
2021/09/11 02:05:07;;;;;;;24.95;11.48;;;;;;;17.72;82.14;101555.53;4832267;29;20522;-67
2021/09/11 02:07:33;;;;;;;18.08;11.40;;;;;;;17.65;83.54;101555.06;4841463;29;20133;-63
2021/09/11 02:09:58;;;;;;;20.60;11.00;;;;;;;17.60;84.51;101549.16;4841508;29;20127;-69
2021/09/11 02:12:23;;;;;;;18.15;10.98;;;;;;;17.54;85.06;101552.22;4841127;29;20076;-63
2021/09/11 02:14:48;;;;;;;17.83;11.00;;;;;;;17.50;84.90;101548.84;4840868;29;20085;-67
2021/09/11 02:17:14;;;;;;;21.73;11.70;;;;;;;17.43;85.66;101549.34;4841166;29;20045;-65
2021/09/11 02:19:39;;;;;;;21.20;11.35;;;;;;;17.39;85.78;101554.03;4841227;29;20114;-63
2021/09/11 02:22:06;;;;;;;20.80;12.00;;;;;;;17.36;86.35;101563.09;4841057;29;20033;-64
2021/09/11 02:24:32;;;;;;;21.75;12.07;;;;;;;17.37;86.49;101561.31;4841190;29;20467;-67
2021/09/11 02:26:58;;;;;;;22.17;12.25;;;;;;;17.33;86.89;101554.44;4840797;29;20054;-65
2021/09/11 02:29:24;;;;;;;18.73;12.00;;;;;;;17.33;86.81;101554.44;4841066;29;20034;-63
2021/09/11 02:31:49;;;;;;;21.00;12.02;;;;;;;17.30;86.57;101558.16;4843047;29;20210;-66
2021/09/11 02:34:15;;;;;;;20.02;11.88;;;;;;;17.33;86.57;101559.78;4844521;29;20108;-69
2021/09/11 02:36:40;;;;;;;23.65;12.02;;;;;;;17.32;86.41;101553.56;4843700;29;20065;-69
2021/09/11 02:39:06;;;;;;;23.00;13.15;;;;;;;17.34;86.54;101551.66;4844298;29;20037;-70
2021/09/11 02:41:33;;;;;;;19.90;11.95;;;;;;;17.34;86.47;101550.78;4844334;29;20045;-66
2021/09/11 02:44:00;;;;;;;19.13;12.05;;;;;;;17.34;86.86;101548.97;4844182;29;20372;-64
2021/09/11 02:46:25;;;;;;;20.33;12.32;;;;;;;17.34;87.16;101550.78;4843909;29;20041;-69
2021/09/11 02:48:50;;;;;;;23.02;12.77;;;;;;;17.35;86.76;101553.38;4844072;29;20038;-68
2021/09/11 02:51:16;;;;;;;23.25;11.43;;;;;;;17.34;86.30;101551.66;4844401;29;20055;-64
2021/09/11 02:53:41;;;;;;;24.95;11.93;;;;;;;17.32;86.73;101544.69;4844102;29;20435;-69
2021/09/11 02:56:07;;;;;;;20.33;11.00;;;;;;;17.33;86.84;101544.56;4844128;29;20038;-69
2021/09/11 02:58:32;;;;;;;24.35;11.60;;;;;;;17.31;86.78;101549.16;4843087;29;20033;-63
2021/09/11 03:00:58;;;;;;;23.13;11.55;;;;;;;17.32;86.65;101548.19;4843994;29;20040;-65
2021/09/11 03:03:23;;;;;;;22.23;11.23;;;;;;;17.32;86.14;101544.69;4843927;29;20042;-63
2021/09/11 03:05:48;;;;;;;21.23;11.23;;;;;;;17.32;86.61;101544.69;4844170;29;20030;-67
2021/09/11 03:08:14;;;;;;;18.38;10.48;;;;;;;17.31;86.23;101532.25;4843346;29;20034;-64
2021/09/11 03:10:40;;;;;;;19.38;10.30;;;;;;;17.29;86.56;101540.38;4843524;29;20121;-69
2021/09/11 03:13:05;;;;;;;20.42;11.15;;;;;;;17.32;86.84;101540.16;4843741;29;20032;-64
2021/09/11 03:15:30;;;;;;;20.00;10.98;;;;;;;17.35;86.67;101544.47;4843817;29;20037;-64
2021/09/11 03:17:56;;;;;;;22.13;11.10;;;;;;;17.34;86.46;101540.06;4843512;29;20040;-69
2021/09/11 03:20:21;;;;;;;20.42;11.13;;;;;;;17.35;86.48;101542.66;4843205;29;20062;-63
2021/09/11 03:22:46;;;;;;;21.23;10.35;;;;;;;17.36;86.36;101543.53;4843880;29;20041;-64
2021/09/11 03:25:13;;;;;;;16.80;10.82;;;;;;;17.38;86.29;101554.13;4843698;29;20096;-68
2021/09/11 03:27:39;;;;;;;19.95;11.23;;;;;;;17.38;86.61;101546.09;4843608;29;20038;-63
2021/09/11 03:30:05;;;;;;;26.92;12.10;;;;;;;17.39;86.39;101542.47;4825840;29;20082;-63
2021/09/11 03:32:31;;;;;;;19.92;10.60;;;;;;;17.41;86.31;101553.94;4843049;29;20540;-63
2021/09/11 03:34:56;;;;;;;19.83;10.38;;;;;;;17.40;86.17;101550.41;4843540;29;20034;-63
2021/09/11 03:37:21;;;;;;;20.15;10.95;;;;;;;17.35;86.33;101549.81;4843462;29;20033;-67
2021/09/11 03:39:46;;;;;;;20.92;10.57;;;;;;;17.36;86.53;101546.19;4843128;29;20060;-64
2021/09/11 03:42:12;;;;;;;18.52;10.23;;;;;;;17.38;86.35;101548.78;4842822;29;20506;-63
2021/09/11 03:44:37;;;;;;;21.02;10.85;;;;;;;17.34;86.13;101550.78;4843182;29;20026;-64
2021/09/11 03:47:02;;;;;;;21.20;11.45;;;;;;;17.33;86.79;101549.06;4843020;29;20026;-63
2021/09/11 03:49:28;;;;;;;20.23;10.43;;;;;;;17.35;86.23;101555.19;4842924;29;20034;-64
2021/09/11 03:51:53;;;;;;;24.98;10.98;;;;;;;17.34;86.48;101551.66;4842973;29;20049;-64
2021/09/11 03:54:18;;;;;;;20.52;11.40;;;;;;;17.34;86.37;101553.44;4843249;29;20508;-64
2021/09/11 03:56:44;;;;;;;19.27;11.35;;;;;;;17.30;86.43;101541.22;4843093;29;20026;-63
2021/09/11 03:59:09;;;;;;;18.88;11.45;;;;;;;17.31;86.17;101548.31;4842511;29;20498;-63
2021/09/11 04:01:34;;;;;;;24.92;11.90;;;;;;;17.27;86.59;101547.63;4842301;29;20030;-63
2021/09/11 04:03:59;;;;;;;23.58;12.18;;;;;;;17.29;86.68;101552.88;4842825;29;20050;-63
2021/09/11 04:06:25;;;;;;;22.48;12.88;;;;;;;17.29;86.74;101550.19;4842790;29;20454;-63
2021/09/11 04:08:50;;;;;;;22.40;12.70;;;;;;;17.25;86.70;101554.91;4842851;29;20032;-69
2021/09/11 04:11:15;;;;;;;19.88;12.43;;;;;;;17.24;86.80;101552.31;4842552;29;20034;-64
2021/09/11 04:13:41;;;;;;;21.83;12.40;;;;;;;17.23;86.86;101551.44;4842512;29;20103;-67
2021/09/11 04:16:06;;;;;;;21.10;13.40;;;;;;;17.24;86.88;101552.31;4842430;29;20094;-69
2021/09/11 04:18:31;;;;;;;25.48;13.40;;;;;;;17.23;86.89;101547.94;4842703;29;20030;-65
2021/09/11 04:20:57;;;;;;;21.58;12.70;;;;;;;17.19;86.96;101553.44;4842296;29;20120;-65
2021/09/11 04:23:22;;;;;;;22.92;13.52;;;;;;;17.18;87.27;101548.19;4842370;29;20030;-64
2021/09/11 04:25:47;;;;;;;19.25;13.27;;;;;;;17.13;87.39;101552.97;4842524;29;20034;-64
2021/09/11 04:28:13;;;;;;;23.42;13.13;;;;;;;17.15;87.21;101549.25;4842689;29;20037;-63
2021/09/11 04:30:39;;;;;;;21.92;13.00;;;;;;;17.18;86.90;101554.41;4842171;29;20041;-63
2021/09/11 04:33:04;;;;;;;21.65;13.57;;;;;;;17.15;86.99;101549.25;4842366;29;20038;-65
2021/09/11 04:35:30;;;;;;;25.35;14.77;;;;;;;17.15;87.00;101564.47;4842180;29;20041;-63
2021/09/11 04:37:58;;;;;;;23.08;13.48;;;;;;;17.16;86.63;101548.31;4841864;29;20567;-64
2021/09/11 04:40:23;;;;;;;21.85;13.65;;;;;;;17.13;86.97;101559.19;4842434;29;20037;-64
2021/09/11 04:42:49;;;;;;;21.70;13.68;;;;;;;17.13;87.71;101558.31;4842276;29;20092;-63
2021/09/11 04:45:14;;;;;;;24.98;14.13;;;;;;;17.11;87.36;101558.44;4841957;29;20442;-66
2021/09/11 04:47:40;;;;;;;23.45;13.00;;;;;;;17.10;87.40;101556.69;4841888;29;20506;-65
2021/09/11 04:50:06;;;;;;;20.80;13.32;;;;;;;17.12;87.68;101565.50;4841745;29;20034;-63
2021/09/11 04:52:32;;;;;;;19.92;13.23;;;;;;;17.10;88.31;101554.03;4842145;29;20034;-64
2021/09/11 04:54:57;;;;;;;24.25;13.15;;;;;;;17.09;87.98;101549.63;4830000;29;20388;-62
2021/09/11 04:57:22;;;;;;;26.77;14.23;;;;;;;17.08;88.43;101557.75;4829623;29;20400;-61
2021/09/11 04:59:48;;;;;;;25.90;14.20;;;;;;;17.07;88.01;101564.91;4823992;29;20038;-66
2021/09/11 05:02:13;;;;;;;28.63;14.80;;;;;;;17.07;88.24;101562.22;4823541;29;20068;-61
2021/09/11 05:04:38;;;;;;;25.05;14.32;;;;;;;17.10;88.64;101566.56;4824060;29;20518;-66
2021/09/11 05:07:04;;;;;;;24.42;14.13;;;;;;;17.08;88.71;101565.78;4820422;29;20034;-62
2021/09/11 05:09:29;;;;;;;22.20;14.27;;;;;;;17.09;88.51;101564.81;4841440;29;20033;-64
2021/09/11 05:11:54;;;;;;;21.38;13.18;;;;;;;17.08;88.72;101560.44;4834069;29;20045;-63
2021/09/11 05:14:20;;;;;;;22.05;13.95;;;;;;;17.06;88.37;101560.53;4823873;29;20033;-66
2021/09/11 05:16:45;;;;;;;23.58;14.13;;;;;;;17.09;88.49;101560.31;4822805;29;20109;-62
2021/09/11 05:19:10;;;;;;;24.77;14.77;;;;;;;17.11;88.99;101565.56;4824072;29;20494;-64
2021/09/11 05:21:36;;;;;;;20.80;13.05;;;;;;;17.16;88.33;101576.84;4823658;29;20425;-62
2021/09/11 05:24:02;;;;;;;26.25;15.15;;;;;;;17.17;88.17;101571.44;4823000;29;20095;-63
2021/09/11 05:26:27;;;;;;;24.02;14.52;;;;;;;17.16;88.46;101572.38;4823760;29;20030;-61
2021/09/11 05:28:53;;;;;;;24.02;13.98;;;;;;;17.15;88.21;101572.50;4839984;29;20045;-62
2021/09/11 05:31:18;;;;;;;28.38;15.13;;;;;;;17.18;88.26;101572.28;4827865;29;20041;-64
2021/09/11 05:33:43;;;;;;;22.55;14.27;;;;;;;17.21;88.08;101572.09;4823771;29;20038;-60
2021/09/11 05:36:09;;;;;;;30.02;14.55;;;;;;;17.24;88.27;101563.00;4823648;29;20030;-62
2021/09/11 05:38:34;;;;;;;23.60;14.90;;;;;;;17.26;87.75;101561.97;4832731;29;20424;-60
2021/09/11 05:41:00;;;;;;;23.67;13.38;;;;;;;17.26;88.05;101572.66;4840680;29;20044;-62
2021/09/11 05:43:25;;;;;;;27.40;15.98;;;;;;;17.27;88.14;101574.38;4841698;29;20030;-63
2021/09/11 05:45:50;;;;;;;25.27;16.05;;;;;;;17.28;87.45;101583.31;4833513;29;20023;-63
2021/09/11 05:48:16;;;;;;;26.40;15.40;;;;;;;17.30;87.40;101584.03;4822465;29;20038;-63
2021/09/11 05:50:41;;;;;;;23.63;14.23;;;;;;;17.32;87.46;101582.16;4828073;29;20030;-61
2021/09/11 05:53:06;;;;;;;24.08;14.63;;;;;;;17.30;87.46;101584.94;4840968;29;20032;-60
2021/09/11 05:55:32;;;;;;;26.65;14.77;;;;;;;17.34;86.77;101586.44;4840885;29;20470;-63
2021/09/11 05:57:57;;;;;;;28.02;15.13;;;;;;;17.36;87.01;101600.59;4837052;29;20057;-63
2021/09/11 06:00:22;;;;;;;27.85;15.38;;;;;;;17.31;87.32;101602.69;4826645;29;20183;-63
2021/09/11 06:02:48;;;;;;;24.90;15.40;;;;;;;17.34;86.69;101602.50;4820872;29;20502;-61
2021/09/11 06:05:13;;;;;;;26.42;15.40;;;;;;;17.39;86.78;101609.41;4829227;29;20118;-60
2021/09/11 06:07:40;;;;;;;27.60;15.23;;;;;;;17.36;86.84;101613.97;4828429;29;20060;-63
2021/09/11 06:10:06;;;;;;;24.80;14.98;;;;;;;17.40;86.74;101608.44;4832488;29;20026;-61
2021/09/11 06:12:31;;;;;;;30.65;15.55;;;;;;;17.39;86.64;101612.91;4835658;29;20041;-64
2021/09/11 06:14:56;;;;;;;27.10;15.55;;;;;;;17.43;86.73;101619.84;4822533;29;20386;-62
2021/09/11 06:17:22;;;;;;;29.65;15.98;;;;;;;17.44;86.79;101624.25;4822737;29;20040;-61
2021/09/11 06:19:47;;;;;;;29.98;16.40;;;;;;;17.42;86.47;101636.84;4822694;29;20038;-62
2021/09/11 06:22:13;;;;;;;27.15;15.70;;;;;;;17.44;86.57;101623.38;4836231;29;20160;-60
2021/09/11 06:24:40;;;;;;;27.98;14.85;;;;;;;17.48;86.13;101628.44;4826757;29;20080;-62
2021/09/11 06:27:06;;;;;;;30.00;15.27;;;;;;;17.51;85.97;101622.03;4822877;29;20034;-61
2021/09/11 06:29:32;;;;;;;25.25;14.95;;;;;;;17.52;85.86;101634.47;4822695;29;20117;-62
2021/09/11 06:31:57;;;;;;;31.58;14.70;;;;;;;17.50;85.60;101637.22;4831949;29;20117;-62
2021/09/11 06:34:23;;;;;;;29.20;15.63;;;;;;;17.49;86.04;101624.81;4830046;29;20080;-63
2021/09/11 06:36:49;;;;;;;24.13;14.27;;;;;;;17.52;85.76;101629.97;4838853;29;20364;-62
2021/09/11 06:39:14;;;;;;;26.02;15.98;;;;;;;17.55;86.03;101633.44;4840249;29;20049;-60
2021/09/11 06:41:40;;;;;;;27.30;14.90;;;;;;;17.60;85.50;101628.66;4839828;29;20374;-62
2021/09/11 06:44:05;;;;;;;27.52;15.18;;;;;;;17.60;85.81;101634.00;4836483;29;20126;-61
2021/09/11 06:46:31;;;;;;;26.58;15.45;;;;;;;17.62;86.03;101637.44;4833613;29;20494;-61
2021/09/11 06:48:56;;;;;;;27.25;15.13;;;;;;;17.64;86.29;101647.09;4840281;29;20154;-61
2021/09/11 06:51:22;;;;;;;25.63;14.68;;;;;;;17.61;86.47;101643.72;4840133;29;20383;-61
2021/09/11 06:53:49;;;;;;;24.90;15.20;;;;;;;17.54;87.40;101643.25;4840136;29;20428;-61
2021/09/11 06:56:14;;;;;;;26.05;15.20;;;;;;;17.57;86.95;101645.75;4834431;29;20033;-60
2021/09/11 06:58:40;;;;;;;29.25;16.00;;;;;;;17.64;86.98;101643.56;4839925;29;20041;-63
2021/09/11 07:01:05;;;;;;;31.65;15.73;;;;;;;17.68;86.23;101645.09;4841065;29;20034;-60
2021/09/11 07:03:30;;;;;;;26.52;15.82;;;;;;;17.72;85.61;101643.94;4831062;29;20058;-61
2021/09/11 07:05:56;;;;;;;28.77;14.65;;;;;;;17.77;86.02;101640.97;4828458;29;20117;-61
2021/09/11 07:08:21;;;;;;;26.25;15.45;;;;;;;17.78;85.07;101653.41;4836627;29;20132;-62
2021/09/11 07:10:46;;;;;;;28.88;15.90;;;;;;;17.78;85.39;101646.22;4830963;29;20049;-63
2021/09/11 07:13:11;;;;;;;25.48;15.18;;;;;;;17.83;85.11;101648.63;4832465;29;20043;-60
2021/09/11 07:15:37;;;;;;;28.35;14.85;;;;;;;17.90;84.58;101652.63;4835867;29;20035;-61
2021/09/11 07:18:02;;;;;;;25.65;14.02;;;;;;;17.95;84.58;101647.88;4834926;29;20030;-61
2021/09/11 07:20:29;;;;;;;26.38;14.85;;;;;;;18.04;83.83;101646.44;4838714;29;20034;-62
2021/09/11 07:22:55;;;;;;;30.23;14.60;;;;;;;18.06;83.99;101652.56;4830514;29;20046;-62
2021/09/11 07:25:20;;;;;;;20.95;14.07;;;;;;;18.12;83.47;101662.03;4827982;29;20050;-62
2021/09/11 07:27:46;;;;;;;28.67;14.38;;;;;;;18.11;83.52;101661.19;4827802;29;20030;-62
2021/09/11 07:30:11;;;;;;;28.33;14.80;;;;;;;18.16;83.05;101658.22;4828670;29;20064;-62
2021/09/11 07:32:37;;;;;;;27.17;14.25;;;;;;;18.16;83.24;101664.44;4828078;29;20033;-63
2021/09/11 07:35:02;;;;;;;26.80;13.98;;;;;;;18.21;82.94;101655.22;4837878;29;20042;-61
2021/09/11 07:37:28;;;;;;;20.35;12.38;;;;;;;18.19;83.25;101671.41;4827157;29;20027;-62
2021/09/11 07:39:53;;;;;;;27.02;14.27;;;;;;;18.20;83.13;101669.56;4823961;29;20498;-62
2021/09/11 07:42:18;;;;;;;26.65;13.45;;;;;;;18.27;83.19;101679.81;4836097;29;20091;-62
2021/09/11 07:44:44;;;;;;;30.48;14.65;;;;;;;18.27;83.04;101673.59;4834568;29;20481;-61
2021/09/11 07:47:10;;;;;;;23.73;14.30;;;;;;;18.31;82.76;101665.28;4836929;29;20471;-62
2021/09/11 07:49:35;;;;;;;25.00;13.73;;;;;;;18.36;82.78;101672.16;4834661;29;20041;-64
2021/09/11 07:52:00;;;;;;;27.15;14.93;;;;;;;18.37;82.11;101687.28;4828376;29;20493;-63
2021/09/11 07:54:26;;;;;;;24.67;15.02;;;;;;;18.32;82.62;101675.00;4830559;29;20073;-62
2021/09/11 07:56:51;;;;;;;30.23;14.95;;;;;;;18.41;82.39;101676.25;4823915;29;20018;-62
2021/09/11 07:59:16;;;;;;;29.98;15.13;;;;;;;18.50;81.95;101674.78;4832116;29;20497;-63
2021/09/11 08:01:42;;;;;;;28.33;14.85;;;;;;;18.59;81.68;101674.19;4839634;29;20110;-61
2021/09/11 08:04:07;;;;;;;28.98;16.60;;;;;;;18.58;81.11;101685.00;4828675;29;20066;-67
2021/09/11 08:06:32;;;;;;;28.98;14.95;;;;;;;18.58;81.46;101687.69;4840082;29;20061;-62
2021/09/11 08:08:58;;;;;;;26.90;15.35;;;;;;;18.61;81.29;101691.03;4825525;29;20065;-63
2021/09/11 08:11:23;;;;;;;27.35;15.52;;;;;;;18.65;81.30;101689.88;4825938;29;20468;-63
2021/09/11 08:13:49;;;;;;;26.83;15.75;;;;;;;18.72;81.41;101695.72;4839684;29;20476;-63
2021/09/11 08:16:14;;;;;;;27.48;17.10;;;;;;;18.77;80.80;101690.03;4840862;29;20036;-62
2021/09/11 08:18:40;;;;;;;26.95;16.55;;;;;;;18.80;80.99;101693.38;4824615;29;20139;-63
2021/09/11 08:21:05;;;;;;;26.73;16.55;;;;;;;18.88;80.79;101683.97;4828153;29;20503;-62
2021/09/11 08:23:31;;;;;;;30.13;17.80;;;;;;;18.84;80.35;101689.53;4823551;29;20031;-64
2021/09/11 08:25:56;;;;;;;30.02;16.30;;;;;;;18.97;80.55;101692.28;4817487;29;20035;-67
2021/09/11 08:28:22;;;;;;;30.67;16.65;;;;;;;19.18;79.59;101693.63;4811164;29;20021;-63
2021/09/11 08:30:47;;;;;;;29.83;16.63;;;;;;;19.45;78.67;101696.25;4840221;29;20108;-62
2021/09/11 08:33:14;;;;;;;24.27;13.98;;;;;;;19.65;77.63;101702.94;4824652;29;20472;-64
2021/09/11 08:35:40;;;;;;;25.40;14.10;;;;;;;19.49;78.23;101695.94;4839002;29;20030;-63
2021/09/11 08:38:06;;;;;;;26.83;13.95;;;;;;;19.63;77.58;101700.34;4817082;29;20100;-63
2021/09/11 08:40:31;;;;;;;39.30;16.20;;;;;;;19.71;77.24;101704.34;4839509;29;20071;-62
2021/09/11 08:42:57;;;;;;;37.10;15.45;;;;;;;19.67;77.93;101711.75;4838664;29;20041;-62
2021/09/11 08:45:23;;;;;;;25.35;13.77;;;;;;;19.60;77.62;101703.25;4823553;29;20035;-63
2021/09/11 08:47:48;;;;;;;24.35;14.55;;;;;;;19.44;78.27;101714.19;4827716;29;20030;-62
2021/09/11 08:50:17;;;;;;;24.05;13.38;;;;;;;19.39;79.34;101716.34;4830507;29;20030;-62
2021/09/11 08:52:44;;;;;;;22.92;13.27;;;;;;;19.44;79.41;101718.72;4839660;29;20034;-63
2021/09/11 08:55:11;;;;;;;24.88;13.45;;;;;;;19.52;79.09;101726.25;4840899;29;20386;-63
2021/09/11 08:57:36;;;;;;;26.23;13.45;;;;;;;19.60;78.38;101721.19;4840108;29;20165;-63
2021/09/11 09:00:05;;;;;;;22.25;12.73;;;;;;;19.73;76.90;101729.25;4839041;29;20460;-62
2021/09/11 09:02:30;;;;;;;22.63;12.85;;;;;;;19.79;77.10;101727.00;4832867;29;20042;-63
2021/09/11 09:05:01;;;;;;;20.25;12.27;;;;;;;20.04;77.05;101730.69;4829153;29;20051;-63
2021/09/11 09:07:38;;;;;;;21.55;12.18;;;;;;;20.06;76.02;101736.81;4841338;29;20060;-64
2021/09/11 09:10:07;;;;;;;18.73;11.50;;;;;;;20.29;75.25;101727.13;4839857;29;20054;-65
2021/09/11 09:12:35;;;;;;;20.10;12.07;;;;;;;20.23;75.76;101735.63;4842119;29;20040;-63
2021/09/11 09:15:24;;;;;;;17.67;10.82;;;;;;;20.29;76.12;101737.00;4840560;29;20032;-61
2021/09/11 09:17:51;;;;;;;17.50;10.68;;;;;;;20.42;74.99;101728.91;4839475;29;20117;-65
2021/09/11 09:20:16;;;;;;;15.27;10.13;;;;;;;20.63;74.32;101729.19;4841446;29;20098;-62
2021/09/11 09:22:44;;;;;;;16.85;10.75;;;;;;;20.95;72.75;101729.50;4828225;29;20050;-61
2021/09/11 09:25:37;;;;;;;17.58;10.88;;;;;;;20.75;74.06;101735.50;4834332;29;20034;-63
2021/09/11 09:28:08;;;;;;;15.73;10.65;;;;;;;20.63;74.09;101732.72;4834535;29;20125;-63
2021/09/11 09:30:47;;;;;;;21.60;10.85;;;;;;;20.44;75.07;101743.97;4841152;29;20029;-63
2021/09/11 09:33:23;;;;;;;17.50;11.07;;;;;;;20.49;75.03;101738.25;4841311;29;20479;-62
2021/09/11 09:35:50;;;;;;;15.27;10.52;;;;;;;20.51;74.79;101733.63;4840632;29;20597;-63
2021/09/11 09:38:16;;;;;;;17.30;10.88;;;;;;;20.58;75.47;101734.88;4841566;29;20045;-62
2021/09/11 09:40:50;;;;;;;15.60;11.27;;;;;;;20.59;75.31;101736.63;4843140;29;20037;-63
2021/09/11 09:43:41;;;;;;;23.00;13.00;;;;;;;20.72;74.59;101736.59;4845291;29;20037;-61
2021/09/11 09:46:07;;;;;;;15.90;11.27;;;;;;;20.95;74.29;101742.13;4836780;29;20398;-63
2021/09/11 09:48:34;;;;;;;15.15;10.50;;;;;;;20.92;72.97;101740.50;4844745;29;20117;-62
2021/09/11 09:51:05;;;;;;;16.73;11.55;;;;;;;20.72;73.83;101749.22;4844627;29;20468;-63
2021/09/11 09:53:31;;;;;;;15.37;10.20;;;;;;;20.61;74.23;101742.75;4845245;29;20095;-64
2021/09/11 09:55:57;;;;;;;17.02;10.52;;;;;;;20.66;74.08;101746.94;4844356;29;20069;-63
2021/09/11 09:58:22;;;;;;;16.85;11.20;;;;;;;20.73;73.97;101741.03;4844272;29;20044;-62
2021/09/11 10:00:48;;;;;;;18.67;11.38;;;;;;;20.63;74.90;101748.88;4843961;29;20060;-62
2021/09/11 10:03:14;;;;;;;17.58;11.35;;;;;;;20.53;75.77;101750.50;4844048;29;20061;-60
2021/09/11 10:05:45;;;;;;;16.55;11.35;;;;;;;20.46;75.52;101747.41;4844468;29;20556;-62
2021/09/11 10:08:11;;;;;;;;;;;;;;;20.39;75.76;101743.44;4844694;29;20062;-64
2021/09/11 10:10:39;;;;;;;18.95;10.48;;;;;;;20.43;75.78;101742.22;4844232;29;19959;-62
2021/09/11 10:13:07;;;;;;;16.20;9.55;;;;;;;20.51;75.24;101733.63;4844538;29;20037;-65
2021/09/11 10:15:35;;;;;;;17.85;8.93;;;;;;;20.57;74.47;101738.53;4844059;29;20474;-62
2021/09/11 10:18:02;;;;;;;13.23;9.20;;;;;;;20.54;74.63;101738.78;4843553;29;20463;-62
2021/09/11 10:20:48;;;;;;;17.17;9.07;;;;;;;20.62;74.86;101738.22;4844496;29;20034;-62
2021/09/11 10:23:13;;;;;;;13.98;9.07;;;;;;;20.75;73.84;101735.50;4844021;29;20070;-61
2021/09/11 10:25:41;;;;;;;15.27;10.20;;;;;;;20.59;74.58;101738.47;4843579;29;20029;-62
2021/09/11 10:28:18;;;;;;;14.25;10.07;;;;;;;20.54;74.45;101738.78;4843961;29;20078;-63
2021/09/11 10:31:06;;;;;;;13.02;9.80;;;;;;;20.37;75.59;101748.09;4842921;29;20622;-61
2021/09/11 10:33:47;;;;;;;13.75;9.60;;;;;;;20.28;76.20;101748.72;4834001;29;20207;-64
2021/09/11 10:36:17;;;;;;;15.93;9.48;;;;;;;20.28;76.61;101743.34;4844273;29;20034;-62
2021/09/11 10:38:43;;;;;;;14.30;9.57;;;;;;;20.34;76.32;101731.31;4843877;29;20022;-63
2021/09/11 10:41:14;;;;;;;17.70;10.43;;;;;;;20.38;76.99;101738.16;4843548;29;20387;-63
2021/09/11 10:44:06;;;;;;;13.60;9.43;;;;;;;20.55;76.08;101728.88;4843618;29;20490;-63
2021/09/11 10:46:51;;;;;;;13.43;8.82;;;;;;;20.66;74.76;101736.16;4843807;29;20040;-64
2021/09/11 10:49:32;;;;;;;13.32;8.52;;;;;;;20.79;74.28;101735.19;4843160;29;20038;-63
2021/09/11 10:52:06;;;;;;;13.52;9.07;;;;;;;20.90;74.52;101741.59;4842109;29;20046;-62
2021/09/11 10:54:33;;;;;;;14.68;8.73;;;;;;;21.05;74.22;101731.50;4843514;29;20070;-63
2021/09/11 10:56:58;;;;;;;13.00;8.10;;;;;;;21.23;73.14;101732.81;4843908;29;20069;-63
2021/09/11 10:59:25;;;;;;;15.03;8.73;;;;;;;21.38;73.48;101738.00;4827159;29;20080;-63
2021/09/11 11:01:59;;;;;;;13.60;8.85;;;;;;;21.55;71.71;101725.97;4842150;29;20310;-63
2021/09/11 11:04:34;;;;;;;12.48;8.10;;;;;;;21.58;71.73;101725.72;4843153;29;20054;-64
2021/09/11 11:07:03;;;;;;;12.32;8.32;;;;;;;21.42;72.28;101718.78;4843625;29;20090;-64
2021/09/11 11:09:34;;;;;;;13.65;8.10;;;;;;;21.23;74.14;101724.72;4843921;29;20034;-63